Canefield Airport

Partly cloudy
29oC (84oF)

Partly cloudy


Winds: South easterly @ 06kts /11km/h

Humidity: 56%

Barometric Pressure: 1012 mb

Accumulated Rainfall for March: 128.8 mm

Updated: 14:00 local time (18:00 UTC)

Douglas-Charles Airport

Fair with adjacent showers
29oC (84oF)

Fair with adjacent showers


Winds: East south easterly @ 09kts / 17km/h

Humidity: 68%

Barometric Pressure: 1014 mb

Accumulated Rainfall for March: 246.0 mm

Updated: 14:00 local time (18:00 UTC)

Satellite Imagery

Satellite Imagery
Click image for larger view. (Source: National Hurricane Center).

Aviation Routine Report (METAR)

Douglas-Charles: METAR TDPD 271800Z 12009KT 9999 FEW017 29/22 Q1014=
Canefield: METAR TDCF 271800Z 13006KT 9999 SCT019 29/20 Q1012=